Time;durP1;ratioP1;P1;durP2;ratioP2;P2;SDS_P1;SDS_P2;PMS_P1;PMS_P2;Temp;Humidity;BMP_temperature;BMP_pressure;BME280_temperature;BME280_humidity;BME280_pressure;Samples;Min_cycle;Max_cycle;Signal;HPM_P1;HPM_P2
2021/11/10 00:00:32;;;;;;;29.75;18.23;;;;;;;;;;10332759;28;20032;-79
2021/11/10 00:05:32;;;;;;;40.08;18.80;;;;;;;;;;10350270;28;20034;-79
2021/11/10 00:10:33;;;;;;;52.15;16.60;;;;;;;;;;10348328;28;20030;-79
2021/11/10 00:15:33;;;;;;;28.25;14.32;;;;;;;;;;10332119;28;20073;-81
2021/11/10 00:20:33;;;;;;;24.48;11.43;;;;;;;;;;10333195;28;20062;-79
2021/11/10 00:25:33;;;;;;;24.43;11.50;;;;;;;;;;10333471;28;20038;-79
2021/11/10 00:30:34;;;;;;;39.00;14.65;;;;;;;;;;10347899;28;20329;-79
2021/11/10 00:35:34;;;;;;;22.85;11.43;;;;;;;;;;10333442;28;20042;-79
2021/11/10 00:40:34;;;;;;;25.08;12.32;;;;;;;;;;10334752;28;20109;-79
2021/11/10 00:45:35;;;;;;;21.35;11.25;;;;;;;;;;10355529;28;20030;-80
2021/11/10 00:50:35;;;;;;;23.90;10.38;;;;;;;;;;10339571;28;20100;-79
2021/11/10 00:55:35;;;;;;;19.10;11.70;;;;;;;;;;10339465;28;20117;-79
2021/11/10 01:00:35;;;;;;;19.53;10.57;;;;;;;;;;10354956;28;20034;-79
2021/11/10 01:05:35;;;;;;;25.58;11.50;;;;;;;;;;10339004;28;20359;-79
2021/11/10 01:10:36;;;;;;;28.75;9.70;;;;;;;;;;10339526;28;20046;-79
2021/11/10 01:15:39;;;;;;;21.88;11.85;;;;;;;;;;10337941;28;20038;-80
2021/11/10 01:20:39;;;;;;;20.83;9.43;;;;;;;;;;10340979;28;20054;-79
2021/11/10 01:25:41;;;;;;;22.85;9.43;;;;;;;;;;10337712;28;20062;-79
2021/11/10 01:30:41;;;;;;;27.73;10.60;;;;;;;;;;10338549;28;20041;-79
2021/11/10 01:35:41;;;;;;;26.20;10.95;;;;;;;;;;10354166;28;20371;-79
2021/11/10 01:40:41;;;;;;;21.52;9.65;;;;;;;;;;10338252;28;20534;-79
2021/11/10 01:45:42;;;;;;;20.88;8.68;;;;;;;;;;10337545;28;20023;-80
2021/11/10 01:50:43;;;;;;;17.27;10.07;;;;;;;;;;10337454;28;20105;-79
2021/11/10 01:55:44;;;;;;;29.15;10.90;;;;;;;;;;10338422;28;20353;-79
2021/11/10 02:00:45;;;;;;;21.33;10.65;;;;;;;;;;10336406;28;20080;-79
2021/11/10 02:05:45;;;;;;;21.48;12.55;;;;;;;;;;10352463;28;20503;-79
2021/11/10 02:10:45;;;;;;;25.00;10.13;;;;;;;;;;10352055;28;20041;-78
2021/11/10 02:15:45;;;;;;;23.52;7.60;;;;;;;;;;10336999;28;20081;-79
2021/11/10 02:20:47;;;;;;;13.27;9.20;;;;;;;;;;10338833;28;20292;-79
2021/11/10 02:25:49;;;;;;;24.38;9.93;;;;;;;;;;10337220;28;20040;-79
2021/11/10 02:30:49;;;;;;;20.45;9.48;;;;;;;;;;10336420;28;20026;-79
2021/11/10 02:35:50;;;;;;;19.08;9.93;;;;;;;;;;10335684;28;20035;-79
2021/11/10 02:40:53;;;;;;;20.85;9.77;;;;;;;;;;10335175;28;20037;-79
2021/11/10 02:45:54;;;;;;;15.18;8.63;;;;;;;;;;10350983;28;20031;-79
2021/11/10 02:50:54;;;;;;;13.85;8.93;;;;;;;;;;10334021;28;20041;-79
2021/11/10 02:55:54;;;;;;;19.05;9.70;;;;;;;;;;10336061;28;20030;-79
2021/11/10 03:00:54;;;;;;;17.10;10.95;;;;;;;;;;10336543;28;20038;-78
2021/11/10 03:05:55;;;;;;;23.73;10.98;;;;;;;;;;10335630;28;20022;-79
2021/11/10 03:10:56;;;;;;;33.03;12.65;;;;;;;;;;10342946;28;20038;-76
2021/11/10 03:15:56;;;;;;;30.95;11.65;;;;;;;;;;10360537;28;20156;-77
2021/11/10 03:20:56;;;;;;;23.25;12.57;;;;;;;;;;10334745;28;20054;-79
2021/11/10 03:25:56;;;;;;;28.10;12.80;;;;;;;;;;10334635;28;20038;-79
2021/11/10 03:30:56;;;;;;;25.00;12.27;;;;;;;;;;10333247;28;20027;-79
2021/11/10 03:35:57;;;;;;;28.88;12.77;;;;;;;;;;10334328;28;20035;-78
2021/11/10 03:40:57;;;;;;;36.10;14.27;;;;;;;;;;10333777;28;20038;-79
2021/11/10 03:45:57;;;;;;;19.30;12.02;;;;;;;;;;10335268;28;20431;-79
2021/11/10 03:50:57;;;;;;;34.30;15.20;;;;;;;;;;10349271;28;20061;-79
2021/11/10 03:55:57;;;;;;;31.88;17.15;;;;;;;;;;10333367;28;20225;-79
2021/11/10 04:00:58;;;;;;;34.22;14.75;;;;;;;;;;10333096;28;20121;-79
2021/11/10 04:05:58;;;;;;;27.95;12.70;;;;;;;;;;10333647;28;20117;-79
2021/11/10 04:11:00;;;;;;;29.55;14.48;;;;;;;;;;10332939;28;20058;-79
2021/11/10 04:16:00;;;;;;;32.80;14.57;;;;;;;;;;10336477;28;20034;-79
2021/11/10 04:21:01;;;;;;;34.97;16.95;;;;;;;;;;10342710;28;20568;-79
2021/11/10 04:26:03;;;;;;;30.38;15.30;;;;;;;;;;10341722;28;20039;-79
2021/11/10 04:31:04;;;;;;;43.25;15.20;;;;;;;;;;10339943;28;20065;-79
2021/11/10 04:36:05;;;;;;;37.67;13.25;;;;;;;;;;10339505;28;20476;-79
2021/11/10 04:41:05;;;;;;;40.72;12.02;;;;;;;;;;10355229;28;20053;-79
2021/11/10 04:46:10;;;;;;;45.80;13.90;;;;;;;;;;10338951;28;20140;-79
2021/11/10 04:51:11;;;;;;;33.10;12.60;;;;;;;;;;10340827;28;20105;-79
2021/11/10 04:56:11;;;;;;;19.17;10.82;;;;;;;;;;10341024;28;20528;-79
2021/11/10 05:01:16;;;;;;;18.92;10.23;;;;;;;;;;10339270;28;20034;-79
2021/11/10 05:06:16;;;;;;;18.80;11.90;;;;;;;;;;10339618;28;20142;-79
2021/11/10 05:11:16;;;;;;;25.27;11.38;;;;;;;;;;10354192;28;20030;-78
2021/11/10 05:16:16;;;;;;;31.53;13.17;;;;;;;;;;10354179;28;20127;-79
2021/11/10 05:21:17;;;;;;;13.98;9.38;;;;;;;;;;10339937;28;20335;-78
2021/11/10 05:26:17;;;;;;;24.42;12.98;;;;;;;;;;10339465;28;20359;-79
2021/11/10 05:31:17;;;;;;;25.10;9.70;;;;;;;;;;10339386;28;20039;-79
2021/11/10 05:36:17;;;;;;;25.98;10.38;;;;;;;;;;10337556;28;20133;-78
2021/11/10 05:41:18;;;;;;;16.02;10.32;;;;;;;;;;10338863;28;20087;-79
2021/11/10 05:46:18;;;;;;;30.67;13.27;;;;;;;;;;10336465;28;20034;-78
2021/11/10 05:51:19;;;;;;;24.85;11.75;;;;;;;;;;10337768;28;20475;-77
2021/11/10 05:56:21;;;;;;;10.57;9.02;;;;;;;;;;10337532;28;20030;-77
2021/11/10 06:01:21;;;;;;;30.38;11.35;;;;;;;;;;10337649;28;20044;-78
2021/11/10 06:06:21;;;;;;;29.13;12.70;;;;;;;;;;10337468;28;20022;-78
2021/11/10 06:11:22;;;;;;;19.98;11.88;;;;;;;;;;10337238;28;20137;-79
2021/11/10 06:16:22;;;;;;;24.42;10.75;;;;;;;;;;10335893;28;20518;-79
2021/11/10 06:21:22;;;;;;;35.45;11.65;;;;;;;;;;10337693;28;20090;-78
2021/11/10 06:26:22;;;;;;;20.58;11.48;;;;;;;;;;10335202;28;20026;-79
2021/11/10 06:31:23;;;;;;;23.95;10.85;;;;;;;;;;10351243;28;20036;-79
2021/11/10 06:36:23;;;;;;;25.20;9.90;;;;;;;;;;10335608;28;20041;-79
2021/11/10 06:41:23;;;;;;;22.88;9.82;;;;;;;;;;10334018;28;20034;-79
2021/11/10 06:46:23;;;;;;;26.00;11.20;;;;;;;;;;10350081;28;20026;-79
2021/11/10 06:51:24;;;;;;;14.13;10.02;;;;;;;;;;10335407;28;20042;-80
2021/11/10 06:56:24;;;;;;;28.48;12.02;;;;;;;;;;10334641;28;20097;-78
2021/11/10 07:01:26;;;;;;;22.58;9.65;;;;;;;;;;10335778;28;20041;-79
2021/11/10 07:06:26;;;;;;;28.88;11.48;;;;;;;;;;10335063;28;20057;-79
2021/11/10 07:11:28;;;;;;;26.92;14.10;;;;;;;;;;10334212;28;20061;-79
2021/11/10 07:16:28;;;;;;;25.00;10.25;;;;;;;;;;10348834;28;20030;-79
2021/11/10 07:21:29;;;;;;;24.85;13.02;;;;;;;;;;10335271;28;20033;-78
2021/11/10 07:26:29;;;;;;;26.35;12.35;;;;;;;;;;10334351;28;20045;-79
2021/11/10 07:31:29;;;;;;;39.53;15.98;;;;;;;;;;10334017;28;20031;-78
2021/11/10 07:36:30;;;;;;;28.77;13.27;;;;;;;;;;10333828;28;20466;-79
2021/11/10 07:41:35;;;;;;;18.07;11.17;;;;;;;;;;10348505;28;20444;-79
2021/11/10 07:46:35;;;;;;;24.92;14.18;;;;;;;;;;10349042;28;20252;-79
2021/11/10 07:51:35;;;;;;;19.73;11.77;;;;;;;;;;10352876;28;20022;-79
2021/11/10 07:56:35;;;;;;;24.73;12.57;;;;;;;;;;10340430;28;20280;-79
2021/11/10 08:01:36;;;;;;;29.33;10.75;;;;;;;;;;10342040;28;20034;-79
2021/11/10 08:06:36;;;;;;;26.50;12.55;;;;;;;;;;10342076;28;20035;-79
2021/11/10 08:11:37;;;;;;;19.77;12.85;;;;;;;;;;10356259;28;20030;-79
2021/11/10 08:16:37;;;;;;;24.13;14.15;;;;;;;;;;10355363;28;20055;-79
2021/11/10 08:21:39;;;;;;;17.75;11.82;;;;;;;;;;10342311;28;20480;-78
2021/11/10 08:26:39;;;;;;;37.72;10.70;;;;;;;;;;10340461;28;20550;-79
2021/11/10 08:31:39;;;;;;;17.08;11.15;;;;;;;;;;10339131;28;20070;-79
2021/11/10 08:36:39;;;;;;;29.08;11.43;;;;;;;;;;10342171;28;20121;-79
2021/11/10 08:41:41;;;;;;;21.30;11.90;;;;;;;;;;10340191;28;20117;-79
2021/11/10 08:46:42;;;;;;;19.77;10.98;;;;;;;;;;10341066;28;20030;-79
2021/11/10 08:51:42;;;;;;;22.48;11.25;;;;;;;;;;10357862;28;20108;-79
2021/11/10 08:56:43;;;;;;;18.88;11.15;;;;;;;;;;10344570;28;20034;-80
2021/11/10 09:01:43;;;;;;;31.15;12.75;;;;;;;;;;10355313;28;20094;-79
2021/11/10 09:06:44;;;;;;;22.50;12.15;;;;;;;;;;10347483;28;20042;-79
2021/11/10 09:11:45;;;;;;;13.43;8.57;;;;;;;;;;10344143;28;20034;-78
2021/11/10 09:16:45;;;;;;;23.08;11.45;;;;;;;;;;10355221;28;20058;-79
2021/11/10 09:21:45;;;;;;;23.23;10.63;;;;;;;;;;10340825;28;20018;-79
2021/11/10 09:26:47;;;;;;;23.60;10.95;;;;;;;;;;10338962;28;20531;-79
2021/11/10 09:31:48;;;;;;;14.07;9.88;;;;;;;;;;10338885;28;20030;-79
2021/11/10 09:36:48;;;;;;;22.75;10.52;;;;;;;;;;10338714;28;20117;-79
2021/11/10 09:41:50;;;;;;;21.88;11.35;;;;;;;;;;10338430;28;20034;-79
2021/11/10 09:46:50;;;;;;;15.98;9.98;;;;;;;;;;10343536;28;20054;-79
2021/11/10 09:51:51;;;;;;;13.73;8.93;;;;;;;;;;10338836;28;20058;-79
2021/11/10 09:56:54;;;;;;;16.48;10.63;;;;;;;;;;10337745;28;20472;-78
2021/11/10 10:01:54;;;;;;;24.50;9.32;;;;;;;;;;10340596;28;20038;-78
2021/11/10 10:06:54;;;;;;;16.20;9.75;;;;;;;;;;10337940;28;20022;-78
2021/11/10 10:11:55;;;;;;;23.00;8.63;;;;;;;;;;10358339;28;20072;-76
2021/11/10 10:16:55;;;;;;;16.35;7.55;;;;;;;;;;10350434;28;20054;-78
2021/11/10 10:22:00;;;;;;;9.48;7.93;;;;;;;;;;10359963;28;20027;-78
2021/11/10 10:27:05;;;;;;;20.85;8.50;;;;;;;;;;10337439;28;20034;-78
2021/11/10 10:32:06;;;;;;;24.17;9.70;;;;;;;;;;10340152;28;20035;-79
2021/11/10 10:37:18;;;;;;;18.40;9.02;;;;;;;;;;10336544;28;20034;-79
2021/11/10 10:42:18;;;;;;;14.52;7.88;;;;;;;;;;10352256;28;20030;-79
2021/11/10 10:47:19;;;;;;;20.88;7.57;;;;;;;;;;10353757;28;20113;-79
2021/11/10 10:52:19;;;;;;;15.77;8.27;;;;;;;;;;10338456;28;20121;-79
2021/11/10 10:57:20;;;;;;;14.20;8.27;;;;;;;;;;10335002;28;20073;-79
2021/11/10 11:02:24;;;;;;;22.92;8.70;;;;;;;;;;10350757;28;20363;-79
2021/11/10 11:07:29;;;;;;;14.80;8.18;;;;;;;;;;10338776;28;20026;-78
2021/11/10 11:12:33;;;;;;;15.80;9.65;;;;;;;;;;10342247;28;20042;-77
2021/11/10 11:17:42;;;;;;;19.70;9.93;;;;;;;;;;10355148;28;20423;-78
2021/11/10 11:22:43;;;;;;;11.38;7.78;;;;;;;;;;10357001;28;20117;-77
2021/11/10 11:28:14;;;;;;;17.33;8.00;;;;;;;;;;10341519;28;20022;-77
2021/11/10 11:33:34;;;;;;;19.80;10.05;;;;;;;;;;10338393;28;20077;-78
2021/11/10 11:38:39;;;;;;;18.70;9.30;;;;;;;;;;10340461;28;20018;-78
2021/11/10 11:43:40;;;;;;;13.98;9.18;;;;;;;;;;10339905;28;20037;-78
2021/11/10 11:48:41;;;;;;;12.40;9.07;;;;;;;;;;10339019;28;20026;-78
2021/11/10 11:53:42;;;;;;;22.50;10.63;;;;;;;;;;10339869;28;20117;-79
2021/11/10 11:58:42;;;;;;;26.52;10.75;;;;;;;;;;10350827;28;20030;-79
2021/11/10 12:03:44;;;;;;;17.13;9.48;;;;;;;;;;10337712;28;20116;-79
2021/11/10 12:08:48;;;;;;;18.60;9.73;;;;;;;;;;10335525;28;20023;-78
2021/11/10 12:14:04;;;;;;;15.43;8.68;;;;;;;;;;10333674;28;20037;-79
2021/11/10 12:19:04;;;;;;;15.07;9.93;;;;;;;;;;10333691;28;20477;-78
2021/11/10 12:24:05;;;;;;;18.02;11.02;;;;;;;;;;10333354;28;20042;-79
2021/11/10 12:29:06;;;;;;;20.95;9.93;;;;;;;;;;10333183;28;20026;-79
2021/11/10 12:34:18;;;;;;;24.02;9.18;;;;;;;;;;10333324;28;20030;-79
2021/11/10 12:39:33;;;;;;;18.63;11.40;;;;;;;;;;10339445;28;20468;-78
2021/11/10 12:44:40;;;;;;;13.50;9.32;;;;;;;;;;10356822;28;20030;-79
2021/11/10 12:49:40;;;;;;;;;;;;;;;;;;10355825;28;20433;-79
2021/11/10 12:54:41;;;;;;;22.35;9.77;;;;;;;;;;10340093;28;19905;-79
2021/11/10 12:59:49;;;;;;;19.60;10.60;;;;;;;;;;10339382;28;20054;-80
2021/11/10 13:04:56;;;;;;;22.17;11.60;;;;;;;;;;10339391;28;20053;-78
2021/11/10 13:10:06;;;;;;;14.20;10.85;;;;;;;;;;10342944;28;20037;-77
2021/11/10 13:15:07;;;;;;;22.70;11.57;;;;;;;;;;10352432;28;20033;-77
2021/11/10 13:20:08;;;;;;;15.60;9.90;;;;;;;;;;10352285;28;20063;-78
2021/11/10 13:25:12;;;;;;;14.38;9.88;;;;;;;;;;10346912;28;20033;-77
2021/11/10 13:30:40;;;;;;;19.60;10.00;;;;;;;;;;10344949;28;20026;-79
2021/11/10 13:35:40;;;;;;;24.92;11.52;;;;;;;;;;10344086;28;20030;-79
2021/11/10 13:40:40;;;;;;;28.95;12.02;;;;;;;;;;10339418;28;20034;-79
2021/11/10 13:45:43;;;;;;;19.67;10.80;;;;;;;;;;10344398;28;20046;-78
2021/11/10 13:50:46;;;;;;;20.40;10.40;;;;;;;;;;10359064;28;20030;-77
2021/11/10 13:55:46;;;;;;;16.92;10.88;;;;;;;;;;10345942;28;20030;-79
2021/11/10 14:00:48;;;;;;;20.65;10.75;;;;;;;;;;10343881;28;20030;-80
2021/11/10 14:05:48;;;;;;;23.27;12.25;;;;;;;;;;10361138;28;20451;-79
2021/11/10 14:10:55;;;;;;;21.73;10.15;;;;;;;;;;10354767;28;20041;-79
2021/11/10 14:15:55;;;;;;;;;;;;;;;;;;10352287;28;20038;-79
2021/11/10 14:20:56;;;;;;;18.10;10.73;;;;;;;;;;10336239;28;19918;-78
2021/11/10 14:26:00;;;;;;;19.38;10.15;;;;;;;;;;10336354;28;20022;-79
2021/11/10 14:31:07;;;;;;;17.73;10.30;;;;;;;;;;10337749;28;20133;-79
2021/11/10 14:36:07;;;;;;;;;;;;;;;;;;10351651;28;20046;-79
2021/11/10 14:41:11;;;;;;;17.77;12.07;;;;;;;;;;10335390;28;19917;-79
2021/11/10 14:52:08;;;;;;;16.52;11.93;;;;;;;;;;10334445;28;20078;-79
2021/11/10 14:57:12;;;;;;;21.42;12.95;;;;;;;;;;10334988;28;20037;-78
2021/11/10 15:02:16;;;;;;;17.80;12.27;;;;;;;;;;10333470;28;20033;-79
2021/11/10 15:07:16;;;;;;;25.40;10.70;;;;;;;;;;10349940;28;20027;-79
2021/11/10 15:12:20;;;;;;;17.55;10.63;;;;;;;;;;10335079;28;20416;-79
2021/11/10 15:17:22;;;;;;;21.98;11.55;;;;;;;;;;10334301;28;20054;-79
2021/11/10 15:22:23;;;;;;;17.77;10.80;;;;;;;;;;10334440;28;20101;-79
2021/11/10 15:27:23;;;;;;;17.80;9.48;;;;;;;;;;10348898;28;20113;-78
2021/11/10 15:32:23;;;;;;;25.10;10.02;;;;;;;;;;10333971;28;20030;-79
2021/11/10 15:37:24;;;;;;;17.15;12.25;;;;;;;;;;10334088;28;20026;-78
2021/11/10 15:42:24;;;;;;;25.70;12.40;;;;;;;;;;10333899;28;20038;-79
2021/11/10 15:47:26;;;;;;;27.75;12.27;;;;;;;;;;10333972;28;20052;-79
2021/11/10 15:52:26;;;;;;;37.38;12.73;;;;;;;;;;10333834;28;20054;-79
2021/11/10 15:57:26;;;;;;;31.38;13.32;;;;;;;;;;10334449;28;20066;-79
2021/11/10 16:02:28;;;;;;;40.70;13.48;;;;;;;;;;10349863;28;20380;-79
2021/11/10 16:07:28;;;;;;;30.15;13.55;;;;;;;;;;10333336;28;20117;-79
2021/11/10 16:12:29;;;;;;;23.05;12.15;;;;;;;;;;10337256;28;20137;-79
2021/11/10 16:17:29;;;;;;;28.70;12.50;;;;;;;;;;10341392;28;20388;-79
2021/11/10 16:22:29;;;;;;;26.25;14.77;;;;;;;;;;10343687;28;20165;-79
2021/11/10 16:27:31;;;;;;;21.95;13.68;;;;;;;;;;10340842;28;20454;-79
2021/11/10 16:32:53;;;;;;;33.67;15.43;;;;;;;;;;10356739;28;20037;-79
2021/11/10 16:37:53;;;;;;;42.28;18.02;;;;;;;;;;10341209;28;20058;-79
2021/11/10 16:42:53;;;;;;;39.30;18.10;;;;;;;;;;10340723;28;20054;-79
2021/11/10 16:47:53;;;;;;;25.85;16.73;;;;;;;;;;10340358;28;20023;-79
2021/11/10 16:52:54;;;;;;;23.73;15.90;;;;;;;;;;10339609;28;20030;-79
2021/11/10 16:58:03;;;;;;;27.38;15.80;;;;;;;;;;10338432;28;20475;-79
2021/11/10 17:03:04;;;;;;;29.98;15.32;;;;;;;;;;10339534;28;20058;-78
2021/11/10 17:08:04;;;;;;;24.83;13.27;;;;;;;;;;10355341;28;20031;-79
2021/11/10 17:13:04;;;;;;;23.35;14.50;;;;;;;;;;10353954;28;20201;-79
2021/11/10 17:18:04;;;;;;;36.55;15.15;;;;;;;;;;10337554;28;20054;-79
2021/11/10 17:23:05;;;;;;;23.80;12.35;;;;;;;;;;10338413;28;20034;-79
2021/11/10 17:28:05;;;;;;;31.27;14.52;;;;;;;;;;10354233;28;20022;-79
2021/11/10 17:33:12;;;;;;;27.85;14.50;;;;;;;;;;10337290;28;20462;-79
2021/11/10 17:38:13;;;;;;;30.45;14.50;;;;;;;;;;10338799;28;20073;-79
2021/11/10 17:43:13;;;;;;;39.90;16.67;;;;;;;;;;10353506;28;20530;-79
2021/11/10 17:48:13;;;;;;;33.65;16.50;;;;;;;;;;10352880;28;20058;-79
2021/11/10 17:53:13;;;;;;;37.65;17.10;;;;;;;;;;10352585;28;20169;-79
2021/11/10 17:58:14;;;;;;;37.90;17.03;;;;;;;;;;10351974;28;20030;-79
2021/11/10 18:03:14;;;;;;;24.40;14.95;;;;;;;;;;10336723;28;20367;-79
2021/11/10 18:08:14;;;;;;;39.97;17.60;;;;;;;;;;10337470;28;20022;-79
2021/11/10 18:13:16;;;;;;;40.20;19.17;;;;;;;;;;10351537;28;20113;-78
2021/11/10 18:18:16;;;;;;;28.10;15.90;;;;;;;;;;10351646;28;20515;-79
2021/11/10 18:23:16;;;;;;;38.72;17.45;;;;;;;;;;10336464;28;20171;-79
2021/11/10 18:28:16;;;;;;;35.97;18.02;;;;;;;;;;10337408;28;20061;-79
2021/11/10 18:33:17;;;;;;;48.17;21.33;;;;;;;;;;10334905;28;20586;-79
2021/11/10 18:38:17;;;;;;;41.42;20.15;;;;;;;;;;10336516;28;20030;-79
2021/11/10 18:43:17;;;;;;;39.70;17.80;;;;;;;;;;10350445;28;20045;-79
2021/11/10 18:48:17;;;;;;;46.13;20.77;;;;;;;;;;10335064;28;20109;-79
2021/11/10 18:53:18;;;;;;;52.03;23.33;;;;;;;;;;10335893;28;20539;-79
2021/11/10 18:58:19;;;;;;;49.10;21.52;;;;;;;;;;10335312;28;20370;-79
2021/11/10 19:03:20;;;;;;;46.17;21.52;;;;;;;;;;10335598;28;20105;-79
2021/11/10 19:23:46;;;;;;;49.47;24.45;;;;;;;;;;10335775;28;20544;-79
2021/11/10 19:28:46;;;;;;;41.63;22.40;;;;;;;;;;10333109;28;20361;-78
2021/11/10 19:33:47;;;;;;;44.30;22.83;;;;;;;;;;10334071;28;20032;-80
2021/11/10 19:38:47;;;;;;;45.97;21.92;;;;;;;;;;10349154;28;20030;-80
2021/11/10 19:43:47;;;;;;;46.80;22.88;;;;;;;;;;10348163;28;20038;-79
2021/11/10 19:48:48;;;;;;;57.92;22.17;;;;;;;;;;10348772;28;20460;-77
2021/11/10 19:53:48;;;;;;;50.47;24.00;;;;;;;;;;10332081;28;20034;-77
2021/11/10 19:58:50;;;;;;;50.03;22.67;;;;;;;;;;10334034;28;20537;-77
2021/11/10 20:03:50;;;;;;;52.70;21.10;;;;;;;;;;10333225;28;20042;-79
2021/11/10 20:08:50;;;;;;;54.00;20.85;;;;;;;;;;10333082;28;20033;-77
2021/11/10 20:13:50;;;;;;;46.08;22.25;;;;;;;;;;10333033;28;20030;-78
2021/11/10 20:18:51;;;;;;;48.40;20.05;;;;;;;;;;10332645;28;20058;-79
2021/11/10 20:23:51;;;;;;;59.70;19.75;;;;;;;;;;10332428;28;20480;-78
2021/11/10 20:28:53;;;;;;;41.22;19.88;;;;;;;;;;10332834;28;20040;-78
2021/11/10 20:33:53;;;;;;;41.67;18.60;;;;;;;;;;10347600;28;20034;-78
2021/11/10 20:38:53;;;;;;;36.70;18.83;;;;;;;;;;10347928;28;20030;-77
2021/11/10 20:43:53;;;;;;;37.72;17.23;;;;;;;;;;10331345;28;20765;-77
2021/11/10 20:48:53;;;;;;;26.38;16.05;;;;;;;;;;10332478;28;20023;-78
2021/11/10 20:53:54;;;;;;;25.05;14.52;;;;;;;;;;10347088;28;20045;-78
2021/11/10 20:58:54;;;;;;;31.10;17.40;;;;;;;;;;10352378;28;20026;-77
2021/11/10 21:03:54;;;;;;;35.63;18.05;;;;;;;;;;10342306;28;20045;-77
2021/11/10 21:08:55;;;;;;;27.75;15.18;;;;;;;;;;10360329;28;20026;-77
2021/11/10 21:13:56;;;;;;;35.78;18.50;;;;;;;;;;10349581;28;20458;-77
2021/11/10 21:18:56;;;;;;;27.38;15.27;;;;;;;;;;10340009;28;20058;-78
2021/11/10 21:23:56;;;;;;;33.30;16.50;;;;;;;;;;10339258;28;20022;-78
2021/11/10 21:28:56;;;;;;;25.20;15.43;;;;;;;;;;10340176;28;20468;-79
2021/11/10 21:33:57;;;;;;;27.90;16.38;;;;;;;;;;10338226;28;20026;-79
2021/11/10 21:38:57;;;;;;;35.80;17.30;;;;;;;;;;10337130;28;20054;-79
2021/11/10 21:43:58;;;;;;;40.28;15.10;;;;;;;;;;10338270;28;20125;-78
2021/11/10 21:48:58;;;;;;;24.92;16.88;;;;;;;;;;10338710;28;20058;-79
2021/11/10 21:53:58;;;;;;;27.15;14.70;;;;;;;;;;10337725;28;20042;-78
2021/11/10 21:58:59;;;;;;;52.00;15.75;;;;;;;;;;10336877;28;20376;-78
2021/11/10 22:04:00;;;;;;;29.20;16.30;;;;;;;;;;10336245;28;20393;-78
2021/11/10 22:09:00;;;;;;;27.67;14.43;;;;;;;;;;10336660;28;20027;-78
2021/11/10 22:14:00;;;;;;;23.40;15.93;;;;;;;;;;10351920;28;20106;-79
2021/11/10 22:19:01;;;;;;;24.70;15.52;;;;;;;;;;10336086;28;20062;-79
2021/11/10 22:24:01;;;;;;;25.35;15.68;;;;;;;;;;10336877;28;20033;-80
2021/11/10 22:29:01;;;;;;;34.22;16.98;;;;;;;;;;10336669;28;20088;-79
2021/11/10 22:34:01;;;;;;;28.23;16.98;;;;;;;;;;10335210;28;20069;-79
2021/11/10 22:39:02;;;;;;;21.27;12.50;;;;;;;;;;10336306;28;20427;-79
2021/11/10 22:44:03;;;;;;;36.72;15.60;;;;;;;;;;10335402;28;20046;-79
2021/11/10 22:49:03;;;;;;;24.75;16.52;;;;;;;;;;10336185;28;20368;-79
2021/11/10 22:54:03;;;;;;;23.77;14.35;;;;;;;;;;10334451;28;20030;-79
2021/11/10 22:59:04;;;;;;;25.13;15.88;;;;;;;;;;10334473;28;20038;-79
2021/11/10 23:04:05;;;;;;;29.00;15.98;;;;;;;;;;10333590;28;20506;-79
2021/11/10 23:09:05;;;;;;;25.02;14.40;;;;;;;;;;10335734;28;20353;-79
2021/11/10 23:14:05;;;;;;;32.15;16.48;;;;;;;;;;10350060;28;20034;-79
2021/11/10 23:19:06;;;;;;;27.15;15.38;;;;;;;;;;10348710;28;20567;-80
2021/11/10 23:24:06;;;;;;;32.53;16.98;;;;;;;;;;10349849;28;20038;-79
2021/11/10 23:29:06;;;;;;;22.95;15.23;;;;;;;;;;10349743;28;20456;-78
2021/11/10 23:34:07;;;;;;;32.67;17.15;;;;;;;;;;10333196;28;20087;-79
2021/11/10 23:39:07;;;;;;;28.02;16.65;;;;;;;;;;10334213;28;20121;-79
2021/11/10 23:44:07;;;;;;;28.58;14.88;;;;;;;;;;10349306;28;20117;-79
2021/11/10 23:49:07;;;;;;;44.25;16.02;;;;;;;;;;10348698;28;20026;-79
2021/11/10 23:54:08;;;;;;;26.58;15.60;;;;;;;;;;10332856;28;20526;-79
2021/11/10 23:59:08;;;;;;;42.13;16.77;;;;;;;;;;10333411;28;20034;-79
